createdAt,value
2023-05-07T00:00:19.025Z,97440.91
2023-05-07T00:02:48.910Z,97441.72
2023-05-07T00:05:15.892Z,97444.25
2023-05-07T00:07:42.645Z,97440.81
2023-05-07T00:10:09.918Z,97442.53
2023-05-07T00:12:36.641Z,97437.44
2023-05-07T00:15:03.995Z,97433.16
2023-05-07T00:17:31.237Z,97442.44
2023-05-07T00:19:57.816Z,97440.78
2023-05-07T00:22:24.325Z,97442.44
2023-05-07T00:24:50.865Z,97446.72
2023-05-07T00:27:17.388Z,97436.50
2023-05-07T00:29:43.950Z,97435.66
2023-05-07T00:32:10.641Z,97433.97
2023-05-07T00:34:37.243Z,97442.50
2023-05-07T00:37:06.015Z,97445.94
2023-05-07T00:39:33.162Z,97451.03
2023-05-07T00:41:59.789Z,97451.88
2023-05-07T00:44:26.338Z,97452.81
2023-05-07T00:46:52.994Z,97439.16
2023-05-07T00:49:19.548Z,97432.03
2023-05-07T00:51:46.461Z,97439.94
2023-05-07T00:54:12.970Z,97435.66
2023-05-07T00:56:40.125Z,97437.44
2023-05-07T00:59:06.902Z,97440.88
2023-05-07T01:01:33.504Z,97448.47
2023-05-07T01:04:00.152Z,97442.50
2023-05-07T01:06:28.759Z,97448.44
2023-05-07T01:08:57.661Z,97439.00
2023-05-07T01:11:24.299Z,97432.09
2023-05-07T01:13:51.190Z,97439.84
2023-05-07T01:16:17.717Z,97437.28
2023-05-07T01:18:44.243Z,97427.97
2023-05-07T01:21:12.024Z,97427.97
2023-05-07T01:23:38.499Z,97423.75
2023-05-07T01:26:05.068Z,97422.03
2023-05-07T01:28:31.544Z,97418.63
2023-05-07T01:31:02.622Z,97416.13
2023-05-07T01:33:29.339Z,97418.69
2023-05-07T01:35:55.921Z,97417.88
2023-05-07T01:38:22.966Z,97418.63
2023-05-07T01:40:49.463Z,97415.28
2023-05-07T01:43:16.448Z,97418.69
2023-05-07T01:45:42.995Z,97418.59
2023-05-07T01:48:12.103Z,97423.00
2023-05-07T01:50:38.635Z,97413.56
2023-05-07T01:53:05.168Z,97416.97
2023-05-07T01:55:31.880Z,97425.50
2023-05-07T01:57:58.354Z,97421.19
2023-05-07T02:00:25.010Z,97420.28
2023-05-07T02:02:52.732Z,97421.09
2023-05-07T02:05:19.429Z,97421.09
2023-05-07T02:07:45.919Z,97416.88
2023-05-07T02:10:12.766Z,97417.69
2023-05-07T02:12:39.589Z,97423.69
2023-05-07T02:15:06.657Z,97417.75
2023-05-07T02:17:34.051Z,97422.91
2023-05-07T02:20:00.949Z,97437.34
2023-05-07T02:22:27.487Z,97419.50
2023-05-07T02:24:54.028Z,97422.06
2023-05-07T02:27:20.682Z,97417.84
2023-05-07T02:29:47.183Z,97412.78
2023-05-07T02:32:13.810Z,97423.84
2023-05-07T02:34:40.436Z,97423.00
2023-05-07T02:37:07.055Z,97423.78
2023-05-07T02:39:33.719Z,97422.94
2023-05-07T02:42:00.255Z,97430.59
2023-05-07T02:44:26.795Z,97423.75
2023-05-07T02:46:53.307Z,97428.06
2023-05-07T02:49:19.832Z,97424.63
2023-05-07T02:51:46.394Z,97427.13
2023-05-07T02:54:12.980Z,97427.97
2023-05-07T02:56:39.501Z,97430.50
2023-05-07T02:59:06.225Z,97420.28
2023-05-07T03:01:32.732Z,97420.28
2023-05-07T03:03:59.386Z,97420.28
2023-05-07T03:06:26.121Z,97423.66
2023-05-07T03:08:52.703Z,97419.47
2023-05-07T03:11:19.198Z,97419.50
2023-05-07T03:13:46.182Z,97416.97
2023-05-07T03:16:12.987Z,97412.72
2023-05-07T03:18:39.609Z,97416.13
2023-05-07T03:21:06.271Z,97415.34
2023-05-07T03:23:32.812Z,97437.44
2023-05-07T03:25:59.329Z,97413.63
2023-05-07T03:28:25.876Z,97424.66
2023-05-07T03:30:52.436Z,97402.28
2023-05-07T03:33:19.021Z,97426.34
2023-05-07T03:35:45.570Z,97422.06
2023-05-07T03:38:12.091Z,97419.50
2023-05-07T03:40:38.626Z,97418.59
2023-05-07T03:43:05.388Z,97421.97
2023-05-07T03:45:31.970Z,97437.25
2023-05-07T03:47:58.496Z,97434.75
2023-05-07T03:50:25.281Z,97440.72
2023-05-07T03:52:51.777Z,97449.22
2023-05-07T03:55:18.968Z,97431.91
2023-05-07T03:57:45.607Z,97442.44
2023-05-07T04:00:13.058Z,97451.03
2023-05-07T04:02:40.125Z,97452.72
2023-05-07T04:05:06.860Z,97450.19
2023-05-07T04:07:33.380Z,97454.44
2023-05-07T04:09:59.984Z,97447.66
2023-05-07T04:12:26.501Z,97452.81
2023-05-07T04:14:53.179Z,97461.28
2023-05-07T04:17:19.798Z,97467.19
2023-05-07T04:19:46.534Z,97466.41
2023-05-07T04:22:13.371Z,97459.53
2023-05-07T04:24:39.933Z,97468.03
2023-05-07T04:27:07.424Z,97465.47
2023-05-07T04:29:34.048Z,97466.34
2023-05-07T04:32:00.699Z,97462.88
2023-05-07T04:34:27.277Z,97458.59
2023-05-07T04:36:54.109Z,97454.19
2023-05-07T04:39:20.735Z,97467.97
2023-05-07T04:41:47.253Z,97453.50
2023-05-07T04:44:13.875Z,97461.16
2023-05-07T04:46:40.415Z,97454.34
2023-05-07T04:49:06.981Z,97450.09
2023-05-07T04:51:34.014Z,97445.00
2023-05-07T04:54:00.982Z,97449.28
2023-05-07T04:56:30.216Z,97447.59
2023-05-07T04:58:56.910Z,97455.31
2023-05-07T05:01:23.492Z,97446.78
2023-05-07T05:03:50.110Z,97455.31
2023-05-07T05:06:16.672Z,97461.28
2023-05-07T05:08:43.188Z,97463.03
2023-05-07T05:11:09.747Z,97465.53
2023-05-07T05:13:36.309Z,97470.63
2023-05-07T05:16:02.860Z,97483.44
2023-05-07T05:18:29.393Z,97480.84
2023-05-07T05:20:55.991Z,97467.09
2023-05-07T05:23:22.617Z,97461.19
2023-05-07T05:25:49.210Z,97452.63
2023-05-07T05:28:15.848Z,97460.41
2023-05-07T05:30:42.476Z,97460.41
2023-05-07T05:33:09.052Z,97463.91
2023-05-07T05:35:36.443Z,97468.13
2023-05-07T05:38:03.174Z,97472.41
2023-05-07T05:40:29.837Z,97463.03
2023-05-07T05:42:56.405Z,97473.28
2023-05-07T05:45:22.896Z,97475.00
2023-05-07T05:47:49.463Z,97472.44
2023-05-07T05:50:16.043Z,97464.84
2023-05-07T05:52:43.052Z,97461.44
2023-05-07T05:55:09.795Z,97457.22
2023-05-07T05:57:36.513Z,97460.72
2023-05-07T06:00:03.620Z,97461.44
2023-05-07T06:02:30.397Z,97462.34
2023-05-07T06:04:57.175Z,97465.75
2023-05-07T06:07:23.764Z,97476.81
2023-05-07T06:09:50.324Z,97483.59
2023-05-07T06:12:16.832Z,97484.38
2023-05-07T06:14:46.474Z,97476.72
2023-05-07T06:17:13.022Z,97476.66
2023-05-07T06:19:39.535Z,97474.97
2023-05-07T06:22:06.373Z,97478.34
2023-05-07T06:24:32.932Z,97476.66
2023-05-07T06:26:59.822Z,97473.28
2023-05-07T06:29:31.271Z,97461.06
2023-05-07T06:31:57.792Z,97478.44
2023-05-07T06:34:24.392Z,97502.31
2023-05-07T06:36:50.930Z,97489.53
2023-05-07T06:39:17.470Z,97493.66
2023-05-07T06:41:44.025Z,97508.25
2023-05-07T06:44:10.710Z,97510.00
2023-05-07T06:46:37.233Z,97504.91
2023-05-07T06:49:03.796Z,97502.34
2023-05-07T06:51:31.162Z,97507.50
2023-05-07T06:53:57.708Z,97505.78
2023-05-07T06:56:24.417Z,97504.13
2023-05-07T06:58:51.109Z,97506.69
2023-05-07T07:01:17.676Z,97498.91
2023-05-07T07:03:44.230Z,97504.91
2023-05-07T07:06:10.793Z,97464.06
2023-05-07T07:08:39.740Z,97507.41
2023-05-07T07:11:06.994Z,97507.41
2023-05-07T07:13:33.527Z,97509.09
2023-05-07T07:16:00.671Z,97514.19
2023-05-07T07:18:27.296Z,97510.75
2023-05-07T07:20:53.865Z,97512.53
2023-05-07T07:23:20.422Z,97510.81
2023-05-07T07:25:46.999Z,97509.97
2023-05-07T07:28:13.601Z,97511.69
2023-05-07T07:30:40.513Z,97507.41
2023-05-07T07:33:07.161Z,97515.13
2023-05-07T07:35:33.876Z,97507.47
2023-05-07T07:38:00.483Z,97516.78
2023-05-07T07:40:27.092Z,97514.25
2023-05-07T07:42:54.250Z,97509.97
2023-05-07T07:45:21.134Z,97519.34
2023-05-07T07:47:47.792Z,97519.31
2023-05-07T07:50:21.247Z,97524.47
2023-05-07T07:52:58.574Z,97520.19
2023-05-07T07:55:25.292Z,97520.13
2023-05-07T07:57:51.929Z,97520.13
2023-05-07T08:00:18.534Z,97520.13
2023-05-07T08:02:45.201Z,97519.25
2023-05-07T08:05:11.825Z,97509.88
2023-05-07T08:07:38.430Z,97522.69
2023-05-07T08:10:05.442Z,97524.34
2023-05-07T08:12:31.923Z,97523.53
2023-05-07T08:14:58.498Z,97514.03
2023-05-07T08:17:25.548Z,97529.50
2023-05-07T08:19:52.227Z,97543.16
2023-05-07T08:22:19.436Z,97521.03
2023-05-07T08:24:46.132Z,97517.63
2023-05-07T08:27:12.922Z,97517.63
2023-05-07T08:29:39.470Z,97513.31
2023-05-07T08:32:06.054Z,97509.13
2023-05-07T08:34:32.623Z,97505.69
2023-05-07T08:36:59.113Z,97512.53
2023-05-07T08:39:25.846Z,97520.22
2023-05-07T08:41:52.394Z,97516.78
2023-05-07T08:44:19.092Z,97515.91
2023-05-07T08:46:47.656Z,97508.16
2023-05-07T08:49:14.566Z,97519.44
2023-05-07T08:51:41.263Z,97521.22
2023-05-07T08:54:08.224Z,97497.16
2023-05-07T08:56:34.870Z,97518.72
2023-05-07T08:59:01.447Z,97511.06
2023-05-07T09:01:28.331Z,97518.75
2023-05-07T09:03:55.460Z,97520.56
2023-05-07T09:06:22.919Z,97521.38
2023-05-07T09:08:53.574Z,97524.03
2023-05-07T09:11:23.817Z,97526.63
2023-05-07T09:13:57.192Z,97527.50
2023-05-07T09:16:24.362Z,97529.22
2023-05-07T09:18:54.392Z,97519.78
2023-05-07T09:21:21.452Z,97524.13
2023-05-07T09:23:55.284Z,97521.59
2023-05-07T09:26:25.260Z,97521.66
2023-05-07T09:28:52.301Z,97511.44
2023-05-07T09:31:21.135Z,97514.88
2023-05-07T09:33:48.210Z,97513.09
2023-05-07T09:36:14.784Z,97513.19
2023-05-07T09:38:41.353Z,97512.22
2023-05-07T09:41:12.287Z,97511.44
2023-05-07T09:43:39.529Z,97506.22
2023-05-07T09:46:13.991Z,97515.75
2023-05-07T09:48:41.878Z,97510.63
2023-05-07T09:51:30.042Z,97499.50
2023-05-07T09:53:57.650Z,97509.75
2023-05-07T09:56:24.170Z,97501.31
2023-05-07T09:58:50.834Z,97500.44
2023-05-07T10:01:17.439Z,97490.94
2023-05-07T10:03:44.082Z,97502.19
2023-05-07T10:06:11.482Z,97504.72
2023-05-07T10:08:38.296Z,97507.28
2023-05-07T10:11:05.867Z,97499.63
2023-05-07T10:13:34.558Z,97503.06
2023-05-07T10:16:01.057Z,97499.50
2023-05-07T10:18:30.900Z,97516.69
2023-05-07T10:20:57.974Z,97500.50
2023-05-07T10:23:24.877Z,97497.06
2023-05-07T10:25:52.427Z,97491.09
2023-05-07T10:28:20.871Z,97485.09
2023-05-07T10:30:48.921Z,97493.63
2023-05-07T10:33:18.015Z,97477.34
2023-05-07T10:35:45.498Z,97470.28
2023-05-07T10:38:12.064Z,97466.78
2023-05-07T10:40:38.676Z,97451.19
2023-05-07T10:43:07.762Z,97479.06
2023-05-07T10:45:36.675Z,97489.19
2023-05-07T10:50:45.557Z,97484.16
2023-05-07T10:53:18.023Z,97485.84
2023-05-07T10:55:47.905Z,97484.16
2023-05-07T11:01:00.944Z,97483.28
2023-05-07T11:03:28.084Z,97463.34
2023-05-07T11:06:14.230Z,97460.91
2023-05-07T11:08:52.890Z,97482.44
2023-05-07T11:11:20.552Z,97477.25
2023-05-07T11:13:48.268Z,97503.63
2023-05-07T11:16:22.063Z,97473.03
2023-05-07T11:18:53.322Z,97479.88
2023-05-07T11:21:39.318Z,97482.50
2023-05-07T11:24:06.998Z,97467.91
2023-05-07T11:26:44.458Z,97444.56
2023-05-07T11:29:29.943Z,97476.50
2023-05-07T11:31:56.585Z,97475.56
2023-05-07T11:34:27.120Z,97469.53
2023-05-07T11:36:53.870Z,97474.59
2023-05-07T11:39:34.218Z,97445.09
2023-05-07T11:42:01.350Z,97471.31
2023-05-07T11:44:42.400Z,97452.91
2023-05-07T11:47:08.959Z,97461.72
2023-05-07T11:49:35.500Z,97465.06
2023-05-07T11:52:01.984Z,97475.47
2023-05-07T11:54:36.327Z,97468.47
2023-05-07T11:57:02.860Z,97472.84
2023-05-07T11:59:29.395Z,97469.44
2023-05-07T12:02:00.191Z,97419.13
2023-05-07T12:04:26.874Z,97456.47
2023-05-07T12:06:56.825Z,97437.63
2023-05-07T12:09:23.375Z,97412.44
2023-05-07T12:11:49.890Z,97418.25
2023-05-07T12:14:19.068Z,97456.63
2023-05-07T12:16:46.029Z,97453.19
2023-05-07T12:19:16.130Z,97464.22
2023-05-07T12:21:42.739Z,97470.19
2023-05-07T12:24:09.333Z,97442.72
2023-05-07T12:26:39.310Z,97444.22
2023-05-07T12:29:05.891Z,97449.56
2023-05-07T12:31:32.455Z,97313.47
2023-05-07T12:33:59.038Z,97432.50
2023-05-07T12:36:26.725Z,97444.50
2023-05-07T12:38:53.289Z,97420.44
2023-05-07T12:41:19.938Z,97436.84
2023-05-07T12:43:46.771Z,97442.78
2023-05-07T12:46:14.773Z,97434.09
2023-05-07T12:48:44.715Z,97418.78
2023-05-07T12:51:13.304Z,97417.94
2023-05-07T12:53:43.486Z,97428.38
2023-05-07T12:56:10.163Z,97424.94
2023-05-07T12:58:36.943Z,97420.50
2023-05-07T13:01:07.681Z,97423.94
2023-05-07T13:03:35.947Z,97422.31
2023-05-07T13:06:11.751Z,97427.47
2023-05-07T13:08:43.745Z,97422.16
2023-05-07T13:13:38.470Z,97402.50
2023-05-07T13:16:05.843Z,97415.38
2023-05-07T13:18:32.875Z,97390.53
2023-05-07T13:20:59.696Z,97399.00
2023-05-07T13:23:26.386Z,97417.19
2023-05-07T13:25:56.828Z,97420.72
2023-05-07T13:28:24.340Z,97404.34
2023-05-07T13:30:52.738Z,97405.22
2023-05-07T13:33:19.334Z,97415.63
2023-05-07T13:35:45.838Z,97419.06
2023-05-07T13:38:12.361Z,97372.34
2023-05-07T13:40:38.869Z,97397.44
2023-05-07T13:43:06.560Z,97418.25
2023-05-07T13:45:33.219Z,97410.50
2023-05-07T13:47:59.965Z,97369.88
2023-05-07T13:50:28.104Z,97408.03
2023-05-07T13:52:54.749Z,97405.50
2023-05-07T13:55:22.348Z,97404.59
2023-05-07T13:57:48.876Z,97388.88
2023-05-07T14:00:17.274Z,97409.53
2023-05-07T14:02:44.070Z,97404.38
2023-05-07T14:05:11.245Z,97406.09
2023-05-07T14:07:38.193Z,97413.84
2023-05-07T14:10:05.415Z,97403.53
2023-05-07T14:12:33.046Z,97408.78
2023-05-07T14:14:59.812Z,97370.53
2023-05-07T14:17:27.952Z,97409.56
2023-05-07T14:19:55.367Z,97414.81
2023-05-07T14:22:24.931Z,97413.16
2023-05-07T14:25:03.154Z,97407.94
2023-05-07T14:27:32.934Z,97369.66
2023-05-07T14:29:59.562Z,97400.91
2023-05-07T14:32:26.139Z,97407.75
2023-05-07T14:34:52.689Z,97409.63
2023-05-07T14:37:20.826Z,97417.38
2023-05-07T14:39:49.898Z,97380.09
2023-05-07T14:42:17.195Z,97417.28
2023-05-07T14:44:44.022Z,97421.63
2023-05-07T14:47:10.929Z,97419.06
2023-05-07T14:49:37.449Z,97401.78
2023-05-07T14:52:05.312Z,97400.09
2023-05-07T14:54:31.838Z,97403.63
2023-05-07T14:56:58.321Z,97410.47
2023-05-07T14:59:26.109Z,97396.53
2023-05-07T15:01:52.902Z,97402.69
2023-05-07T15:04:19.798Z,97403.53
2023-05-07T15:06:47.275Z,97407.94
2023-05-07T15:09:14.394Z,97401.97
2023-05-07T15:11:40.992Z,97390.69
2023-05-07T15:14:07.595Z,97397.59
2023-05-07T15:16:35.042Z,97406.28
2023-05-07T15:19:01.727Z,97385.47
2023-05-07T15:21:28.460Z,97340.41
2023-05-07T15:23:55.037Z,97404.56
2023-05-07T15:26:21.835Z,97388.97
2023-05-07T15:28:48.356Z,97271.91
2023-05-07T15:31:16.110Z,97410.56
2023-05-07T15:33:42.624Z,97394.91
2023-05-07T15:36:09.221Z,97411.34
2023-05-07T15:38:35.747Z,97412.28
2023-05-07T15:41:02.303Z,97309.97
2023-05-07T15:43:28.836Z,97406.16
2023-05-07T15:45:55.794Z,97393.19
2023-05-07T15:48:22.530Z,97384.59
2023-05-07T15:50:49.200Z,97400.94
2023-05-07T15:53:15.723Z,97406.25
2023-05-07T15:55:44.353Z,97408.69
2023-05-07T15:58:10.891Z,97420.81
2023-05-07T16:00:37.454Z,97410.56
2023-05-07T16:03:04.080Z,97403.59
2023-05-07T16:05:31.223Z,97399.78
2023-05-07T16:07:58.077Z,97417.34
2023-05-07T16:10:24.689Z,97351.41
2023-05-07T16:12:51.243Z,97399.97
2023-05-07T16:15:17.880Z,97418.03
2023-05-07T16:17:47.669Z,97404.16
2023-05-07T16:20:15.369Z,97412.81
2023-05-07T16:22:42.373Z,97413.66
2023-05-07T16:25:09.701Z,97402.56
2023-05-07T16:27:36.443Z,97345.09
2023-05-07T16:45:14.030Z,97422.25
2023-05-07T16:47:40.804Z,97429.97
2023-05-07T16:50:07.691Z,97381.41
2023-05-07T16:52:34.229Z,97401.34
2023-05-07T16:55:01.600Z,97427.28
2023-05-07T16:57:29.489Z,97416.88
2023-05-07T17:07:33.906Z,97430.75
2023-05-07T17:12:59.334Z,97171.31
2023-05-07T17:15:26.220Z,97316.03
2023-05-07T17:17:52.895Z,97279.75
2023-05-07T17:20:19.747Z,97179.69
2023-05-07T17:22:46.459Z,97354.69
2023-05-07T17:25:14.768Z,97453.13
2023-05-07T17:27:41.479Z,97459.97
2023-05-07T17:30:08.759Z,97456.63
2023-05-07T17:32:35.467Z,97454.91
2023-05-07T17:35:02.426Z,97459.22
2023-05-07T17:37:28.977Z,97467.72
2023-05-07T17:39:56.212Z,97439.16
2023-05-07T17:42:22.783Z,97477.94
2023-05-07T17:44:49.303Z,97480.44
2023-05-07T17:47:15.792Z,97489.81
2023-05-07T17:49:42.378Z,97483.84
2023-05-07T17:52:09.086Z,97475.19
2023-05-07T17:54:35.550Z,97489.72
2023-05-07T17:57:02.021Z,97497.38
2023-05-07T17:59:28.752Z,97499.06
2023-05-07T18:01:55.363Z,97511.84
2023-05-07T18:04:21.992Z,97513.50
2023-05-07T18:06:48.479Z,97519.44
2023-05-07T18:09:15.263Z,97514.28
2023-05-07T18:11:41.715Z,97508.19
2023-05-07T18:14:08.222Z,97516.78
2023-05-07T18:16:34.869Z,97520.22
2023-05-07T18:19:02.171Z,97516.78
2023-05-07T18:21:28.730Z,97527.84
2023-05-07T18:23:55.231Z,97522.72
2023-05-07T18:26:21.779Z,97527.78
2023-05-07T18:28:48.288Z,97560.09
2023-05-07T18:31:14.864Z,97533.75
2023-05-07T18:33:41.409Z,97531.19
2023-05-07T18:36:08.132Z,97528.63
2023-05-07T18:38:34.659Z,97559.22
2023-05-07T18:41:03.056Z,97532.03
2023-05-07T18:43:29.604Z,97534.56
2023-05-07T18:45:56.294Z,97536.25
2023-05-07T18:48:22.840Z,97536.25
2023-05-07T18:50:49.624Z,97549.00
2023-05-07T18:53:16.193Z,97533.59
2023-05-07T18:55:46.041Z,97537.97
2023-05-07T18:58:12.663Z,97543.06
2023-05-07T19:00:39.118Z,97546.47
2023-05-07T19:03:05.746Z,97543.13
2023-05-07T19:05:32.278Z,97543.06
2023-05-07T19:07:58.818Z,97544.78
2023-05-07T19:10:25.323Z,97545.56
2023-05-07T19:12:55.325Z,97553.28
2023-05-07T19:15:23.352Z,97555.84
2023-05-07T19:17:50.813Z,97567.78
2023-05-07T19:20:17.387Z,97560.94
2023-05-07T19:22:44.081Z,97476.53
2023-05-07T19:25:11.077Z,97575.38
2023-05-07T19:27:37.784Z,97583.94
2023-05-07T19:30:05.720Z,97585.59
2023-05-07T19:32:32.215Z,97589.03
2023-05-07T19:34:58.819Z,97600.97
2023-05-07T19:37:27.160Z,97600.09
2023-05-07T19:39:54.588Z,97600.09
2023-05-07T19:42:21.176Z,97606.91
2023-05-07T19:44:47.659Z,97609.47
2023-05-07T19:47:14.160Z,97616.28
2023-05-07T19:49:42.253Z,97627.34
2023-05-07T19:52:09.215Z,97624.78
2023-05-07T19:54:35.878Z,97581.44
2023-05-07T19:57:02.415Z,97622.22
2023-05-07T19:59:28.954Z,97632.41
2023-05-07T20:01:55.486Z,97628.19
2023-05-07T20:04:22.057Z,97633.28
2023-05-07T20:06:48.641Z,97633.28
2023-05-07T20:09:15.310Z,97629.00
2023-05-07T20:11:41.837Z,97643.50
2023-05-07T20:14:10.063Z,97650.31
2023-05-07T20:16:36.730Z,97633.28
2023-05-07T20:19:04.271Z,97635.84
2023-05-07T20:21:31.352Z,97641.78
2023-05-07T20:23:58.167Z,97643.50
2023-05-07T20:26:24.728Z,97654.56
2023-05-07T20:28:51.218Z,97644.34
2023-05-07T20:31:18.037Z,97647.00
2023-05-07T20:33:44.653Z,97657.25
2023-05-07T20:36:11.185Z,97657.38
2023-05-07T20:38:37.782Z,97611.34
2023-05-07T20:41:08.084Z,97661.69
2023-05-07T20:43:35.198Z,97666.06
2023-05-07T20:46:02.477Z,97664.38
2023-05-07T20:48:30.815Z,97667.03
2023-05-07T20:50:57.943Z,97666.22
2023-05-07T20:53:24.594Z,97668.84
2023-05-07T20:55:51.579Z,97665.44
2023-05-07T20:58:18.348Z,97635.06
2023-05-07T21:00:44.884Z,97670.63
2023-05-07T21:03:11.559Z,97674.91
2023-05-07T21:05:38.151Z,97676.66
2023-05-07T21:08:04.969Z,97672.38
2023-05-07T21:10:31.482Z,97673.22
2023-05-07T21:12:58.043Z,97671.59
2023-05-07T21:15:24.589Z,97669.03
2023-05-07T21:17:51.190Z,97674.22
2023-05-07T21:20:17.746Z,97679.34
2023-05-07T21:22:44.299Z,97627.41
2023-05-07T21:25:13.150Z,97673.34
2023-05-07T21:27:39.964Z,97672.53
2023-05-07T21:30:07.195Z,97674.28
2023-05-07T21:32:33.773Z,97675.97
2023-05-07T21:35:02.834Z,97672.53
2023-05-07T21:37:29.612Z,97670.81
2023-05-07T21:39:56.300Z,97678.47
2023-05-07T21:42:23.484Z,97680.19
2023-05-07T21:44:50.130Z,97686.19
2023-05-07T21:47:16.687Z,97675.91
2023-05-07T21:49:43.408Z,97687.00
2023-05-07T21:52:13.694Z,97681.91
2023-05-07T21:54:40.270Z,97692.03
2023-05-07T21:57:06.822Z,97692.97
2023-05-07T21:59:37.382Z,97697.22
2023-05-07T22:02:04.140Z,97702.34
2023-05-07T22:04:30.874Z,97697.22
2023-05-07T22:06:57.436Z,97698.91
2023-05-07T22:09:24.001Z,97687.66
2023-05-07T22:11:50.593Z,97691.25
2023-05-07T22:14:18.969Z,97710.00
2023-05-07T22:16:46.260Z,97703.19
2023-05-07T22:19:14.979Z,97708.25
2023-05-07T22:21:41.473Z,97706.56
2023-05-07T22:24:08.096Z,97707.38
2023-05-07T22:26:34.662Z,97710.78
2023-05-07T22:29:01.298Z,97712.47
2023-05-07T22:31:27.892Z,97714.16
2023-05-07T22:33:54.434Z,97721.03
2023-05-07T22:36:21.017Z,97721.03
2023-05-07T22:38:47.518Z,97723.44
2023-05-07T22:41:14.046Z,97713.22
2023-05-07T22:43:40.593Z,97725.25
2023-05-07T22:46:07.185Z,97728.59
2023-05-07T22:48:33.778Z,97720.94
2023-05-07T22:51:00.424Z,97724.38
2023-05-07T22:53:26.951Z,97718.38
2023-05-07T22:55:53.484Z,97727.75
2023-05-07T22:58:20.381Z,97722.63
2023-05-07T23:00:47.326Z,97727.75
2023-05-07T23:03:14.047Z,97732.84
2023-05-07T23:05:40.773Z,97735.41
2023-05-07T23:08:07.347Z,97732.03
2023-05-07T23:10:34.994Z,97731.16
2023-05-07T23:13:01.794Z,97733.72
2023-05-07T23:15:28.432Z,97737.13
2023-05-07T23:17:55.044Z,97739.69
2023-05-07T23:20:22.264Z,97737.09
2023-05-07T23:22:48.804Z,97738.81
2023-05-07T23:25:15.391Z,97743.13
2023-05-07T23:27:41.962Z,97741.38
2023-05-07T23:30:09.200Z,97737.97
2023-05-07T23:32:35.870Z,97735.47
2023-05-07T23:35:02.450Z,97737.13
2023-05-07T23:37:29.117Z,97735.41
2023-05-07T23:39:55.754Z,97734.59
2023-05-07T23:42:22.261Z,97734.53
2023-05-07T23:44:48.843Z,97738.75
2023-05-07T23:47:15.423Z,97734.59
2023-05-07T23:49:41.984Z,97739.66
2023-05-07T23:52:08.673Z,97722.44
2023-05-07T23:54:35.185Z,97742.19
2023-05-07T23:57:03.320Z,97735.34
2023-05-07T23:59:29.941Z,97739.59
